^^
Station Historical Data
Daily Summary for June 6, 2017 Units:  English    Metric   Both
« Previous Day
Next Day »
Daily Weekly Monthly Yearly Custom
  High: Low: Average:
Temperature: 57.4 °F 49.8 °F 53.2 °F
Dew Point: 56.3 °F 46.7 °F 51.2 °F
Humidity: 96% 88% 93%
Wind Speed: 2.0mph 0.0mph 0.3mph
Wind Gust: 8.0mph - -
Wind- - WSW
Pressure: 29.95 in 29.71 in -
Precipitation: 0.40 in    
Historical Graphs
 
 
Tabular Data for June 6, 2017
Time Temperature Dew Point Pressure Wind Wind Speed Wind Gust Humidity Rainfall Rate (Hourly) Conditions
00:00 57.4 °F 56.3 °F 29.75 in Calm   4.0 mph 96% 0.00 in RA
00:15 57.1 °F 56.0 °F 29.75 in NNE 1.0 mph 5.0 mph 96% 0.00 in -RA
00:30 56.9 °F 55.8 °F 29.75 in Calm   3.0 mph 96% 0.00 in -RA
00:45 56.6 °F 55.5 °F 29.74 in Calm   5.0 mph 96% 0.00 in -RA
01:00 56.3 °F 55.2 °F 29.74 in Calm   4.0 mph 96% 0.00 in -RA
02:15 54.7 °F 53.6 °F 29.73 in Calm   6.0 mph 96% 0.02 in RA
02:30 54.4 °F 53.3 °F 29.73 in WNW 1.0 mph 3.0 mph 96% 0.00 in
02:45 54.3 °F 53.2 °F 29.73 in Calm   2.0 mph 96% 0.00 in
03:00 54.2 °F 53.1 °F 29.73 in Calm   2.0 mph 96% 0.01 in
03:15 54.1 °F 53.0 °F 29.72 in ENE 1.0 mph 3.0 mph 96% 0.00 in -RA
03:30 54.0 °F 52.9 °F 29.72 in NW 1.0 mph 5.0 mph 96% 0.00 in -RA
03:45 54.0 °F 52.9 °F 29.72 in Calm   3.0 mph 96% 0.00 in -RA
04:00 53.9 °F 52.8 °F 29.72 in Calm   2.0 mph 96% 0.00 in -RA
04:15 53.9 °F 52.8 °F 29.72 in Calm   3.0 mph 96% 0.00 in -DZ
04:30 53.7 °F 52.6 °F 29.71 in NNW 1.0 mph 5.0 mph 96% 0.00 in -DZ
04:45 53.6 °F 52.5 °F 29.72 in Calm   3.0 mph 96% 0.00 in -DZ
05:00 53.7 °F 52.6 °F 29.73 in Calm   2.0 mph 96% 0.00 in -DZ
05:15 53.3 °F 52.2 °F 29.73 in North 1.0 mph 7.0 mph 96% 0.00 in -DZ
05:30 53.2 °F 52.1 °F 29.71 in Calm   7.0 mph 96% 0.00 in -DZ
05:45 53.1 °F 52.0 °F 29.72 in Calm   6.0 mph 96% 0.00 in -DZ
06:00 53.1 °F 52.0 °F 29.73 in Calm   6.0 mph 96% 0.00 in -DZ
06:15 53.1 °F 52.0 °F 29.74 in West 1.0 mph 3.0 mph 96% 0.00 in -DZ
06:30 53.0 °F 51.9 °F 29.74 in Calm   2.0 mph 96% 0.02 in -DZ
06:45 52.9 °F 51.8 °F 29.74 in Calm   2.0 mph 96% 0.01 in -DZ
07:00 52.8 °F 51.7 °F 29.72 in Calm   4.0 mph 96% 0.00 in -DZ
07:15 52.6 °F 51.5 °F 29.72 in West 1.0 mph 5.0 mph 96% 0.01 in RA
07:30 52.7 °F 51.6 °F 29.74 in Calm   8.0 mph 96% 0.02 in RA
07:45 52.6 °F 51.2 °F 29.75 in Calm   5.0 mph 95% 0.00 in OVC
08:00 52.7 °F 51.3 °F 29.76 in Calm   5.0 mph 95% 0.01 in RA
08:15 52.8 °F 51.4 °F 29.76 in Calm   1.0 mph 95% 0.00 in -RA
08:30 52.9 °F 51.8 °F 29.76 in Calm   1.0 mph 96% 0.00 in -RA
08:45 53.0 °F 51.9 °F 29.76 in Calm   2.0 mph 96% 0.00 in -RA
09:00 53.1 °F 52.0 °F 29.75 in Calm   3.0 mph 96% 0.00 in -RA
09:15 53.3 °F 52.1 °F 29.76 in Calm   4.0 mph 96% 0.00 in -RA
09:30 53.3 °F 51.9 °F 29.76 in Calm   3.0 mph 95% 0.00 in -RA
09:45 53.2 °F 51.6 °F 29.76 in Calm   4.0 mph 94% 0.00 in -RA
10:00 53.4 °F 51.7 °F 29.76 in Calm   3.0 mph 94% 0.00 in -RA
10:15 53.5 °F 51.6 °F 29.76 in Calm   4.0 mph 93% 0.00 in OVC
10:30 53.2 °F 51.2 °F 29.77 in Calm   3.0 mph 93% 0.00 in OVC
10:45 53.8 °F 51.8 °F 29.77 in SSW 1.0 mph 3.0 mph 93% 0.00 in OVC
11:00 53.7 °F 51.4 °F 29.78 in North 2.0 mph 5.0 mph 92% 0.00 in OVC
11:15 53.4 °F 51.1 °F 29.78 in NE 1.0 mph 6.0 mph 92% 0.00 in OVC
11:30 53.1 °F 50.8 °F 29.78 in Calm   5.0 mph 92% 0.00 in OVC
11:45 53.0 °F 51.0 °F 29.79 in NNW 1.0 mph 4.0 mph 93% 0.00 in OVC
12:00 52.4 °F 50.4 °F 29.79 in Calm   6.0 mph 93% 0.00 in OVC
12:15 52.2 °F 50.5 °F 29.80 in Calm   5.0 mph 94% 0.00 in OVC
12:30 52.0 °F 50.3 °F 29.80 in Calm   5.0 mph 94% 0.01 in RA
12:45 51.8 °F 50.4 °F 29.80 in NW 1.0 mph 4.0 mph 95% 0.15 in RA
13:00 51.9 °F 50.5 °F 29.80 in Calm   5.0 mph 95% 0.06 in OVC
13:15 52.2 °F 51.1 °F 29.81 in Calm   2.0 mph 96% 0.02 in RA
13:30 52.4 °F 51.3 °F 29.81 in North 1.0 mph 3.0 mph 96% 0.01 in OVC
13:45 52.4 °F 51.3 °F 29.81 in NNW 1.0 mph 4.0 mph 96% 0.00 in OVC
14:00 52.9 °F 51.8 °F 29.81 in Calm   3.0 mph 96% 0.00 in OVC
14:15 53.0 °F 51.6 °F 29.81 in Calm   4.0 mph 95% 0.01 in OVC
14:30 53.1 °F 51.7 °F 29.80 in NW 1.0 mph 4.0 mph 95% 0.03 in RA
14:45 53.4 °F 52.3 °F 29.81 in Calm   4.0 mph 96% 0.01 in RA
15:00 54.2 °F 52.8 °F 29.81 in NW 2.0 mph 5.0 mph 95% 0.00 in OVC
15:15 54.5 °F 52.9 °F 29.81 in Calm   6.0 mph 94% 0.00 in -RA
15:30 54.5 °F 51.9 °F 29.82 in NNW 1.0 mph 4.0 mph 91% 0.00 in -RA
16:00 54.9 °F 52.6 °F 29.82 in NNW 1.0 mph 3.0 mph 92% 0.00 in -RA
16:15 55.3 °F 52.7 °F 29.82 in East 1.0 mph 3.0 mph 91% 0.00 in -RA
16:30 55.5 °F 52.6 °F 29.82 in NNW 1.0 mph 4.0 mph 90% 0.00 in -RA
16:45 55.6 °F 52.4 °F 29.82 in Calm   3.0 mph 89% 0.00 in -RA
17:00 55.6 °F 52.4 °F 29.83 in Calm   2.0 mph 89% 0.00 in -RA
17:15 55.4 °F 52.2 °F 29.83 in Calm   2.0 mph 89% 0.00 in OVC
17:30 55.0 °F 51.9 °F 29.83 in Calm   5.0 mph 89% 0.00 in OVC
17:45 55.0 °F 51.8 °F 29.84 in Calm   2.0 mph 89% 0.00 in OVC
18:00 54.7 °F 51.5 °F 29.84 in Calm   1.0 mph 89% 0.00 in OVC
18:15 54.0 °F 50.6 °F 29.85 in Calm   5.0 mph 88% 0.00 in OVC
18:30 53.4 °F 49.9 °F 29.85 in Calm   3.0 mph 88% 0.00 in OVC
18:45 53.2 °F 50.0 °F 29.86 in Calm   4.0 mph 89% 0.00 in OVC
19:00 52.9 °F 50.0 °F 29.87 in SE 1.0 mph 3.0 mph 90% 0.00 in OVC
19:15 52.5 °F 49.9 °F 29.88 in Calm   2.0 mph 91% 0.00 in OVC
19:30 52.2 °F 49.7 °F 29.88 in Calm   2.0 mph 91% 0.00 in OVC
19:45 52.0 °F 49.7 °F 29.89 in Calm   3.0 mph 92% 0.00 in OVC
20:00 51.9 °F 49.4 °F 29.89 in Calm   2.0 mph 91% 0.00 in OVC
20:15 51.8 °F 49.3 °F 29.90 in Calm   2.0 mph 91% 0.00 in BKN
20:30 51.5 °F 48.7 °F 29.90 in Calm   3.0 mph 90% 0.00 in BKN
20:45 51.3 °F 48.5 °F 29.91 in Calm   4.0 mph 90% 0.00 in BKN
21:00 51.0 °F 47.6 °F 29.91 in Calm   5.0 mph 88% 0.00 in BKN
21:15 50.8 °F 47.4 °F 29.92 in Calm   2.0 mph 88% 0.00 in BKN
21:30 50.7 °F 47.2 °F 29.92 in Calm   3.0 mph 88% 0.00 in BKN
21:45 50.5 °F 47.1 °F 29.93 in Calm   3.0 mph 88% 0.00 in BKN
22:00 50.5 °F 47.1 °F 29.94 in Calm   2.0 mph 88% 0.00 in BKN
22:15 50.4 °F 47.0 °F 29.94 in SE 1.0 mph 3.0 mph 88% 0.00 in BKN
22:30 50.3 °F 46.9 °F 29.94 in Calm   2.0 mph 88% 0.00 in BKN
22:45 50.1 °F 46.7 °F 29.94 in Calm   1.0 mph 88% 0.00 in BKN
23:00 49.9 °F 46.8 °F 29.94 in Calm   2.0 mph 89% 0.00 in BKN
23:15 49.9 °F 46.8 °F 29.95 in Calm   1.0 mph 89% 0.00 in BKN
23:30 49.8 °F 46.7 °F 29.95 in Calm   2.0 mph 89% 0.00 in BKN
23:45 49.8 °F 46.7 °F 29.95 in Calm   2.0 mph 89% 0.00 in BKN
TarryTown NY Weather
Compliments of Weather Underground - 1.5 mb